sensor_id;sensor_type;location;lat;lon;timestamp;pressure;altitude;pressure_sealevel;temperature;humidity
13015;BME280;6573;57.696;11.950;2023-02-22T00:02:08;101686.13;;;4.78;100.00
13015;BME280;6573;57.696;11.950;2023-02-22T00:04:54;101698.25;;;4.78;100.00
13015;BME280;6573;57.696;11.950;2023-02-22T00:07:23;101633.44;;;4.38;100.00
13015;BME280;6573;57.696;11.950;2023-02-22T00:09:52;101576.13;;;4.13;100.00
13015;BME280;6573;57.696;11.950;2023-02-22T00:12:20;101699.16;;;4.78;100.00
13015;BME280;6573;57.696;11.950;2023-02-22T00:14:48;101653.66;;;4.45;100.00
13015;BME280;6573;57.696;11.950;2023-02-22T00:17:17;101702.47;;;4.74;100.00
13015;BME280;6573;57.696;11.950;2023-02-22T00:19:47;101623.03;;;4.38;100.00
13015;BME280;6573;57.696;11.950;2023-02-22T00:22:18;101704.63;;;4.86;100.00
13015;BME280;6573;57.696;11.950;2023-02-22T00:24:46;101700.91;;;4.79;100.00
13015;BME280;6573;57.696;11.950;2023-02-22T00:27:16;101662.00;;;4.60;100.00
13015;BME280;6573;57.696;11.950;2023-02-22T00:29:46;101599.97;;;4.25;100.00
13015;BME280;6573;57.696;11.950;2023-02-22T00:32:15;101701.91;;;4.83;100.00
13015;BME280;6573;57.696;11.950;2023-02-22T00:34:44;101690.41;;;4.76;100.00
13015;BME280;6573;57.696;11.950;2023-02-22T00:37:14;101696.66;;;4.81;100.00
13015;BME280;6573;57.696;11.950;2023-02-22T00:39:47;101684.84;;;4.67;100.00
13015;BME280;6573;57.696;11.950;2023-02-22T00:42:17;101675.78;;;4.56;100.00
13015;BME280;6573;57.696;11.950;2023-02-22T00:44:46;101674.31;;;4.64;100.00
13015;BME280;6573;57.696;11.950;2023-02-22T00:47:14;101690.06;;;4.67;100.00
13015;BME280;6573;57.696;11.950;2023-02-22T00:49:43;101626.38;;;4.34;100.00
13015;BME280;6573;57.696;11.950;2023-02-22T00:52:12;101635.00;;;4.33;100.00
13015;BME280;6573;57.696;11.950;2023-02-22T00:54:41;101674.09;;;4.58;100.00
13015;BME280;6573;57.696;11.950;2023-02-22T00:57:11;101613.75;;;4.21;100.00
13015;BME280;6573;57.696;11.950;2023-02-22T00:59:39;101594.16;;;4.07;100.00
13015;BME280;6573;57.696;11.950;2023-02-22T01:02:07;101682.31;;;4.45;100.00
13015;BME280;6573;57.696;11.950;2023-02-22T01:04:37;101673.88;;;4.52;100.00
13015;BME280;6573;57.696;11.950;2023-02-22T01:07:06;101559.50;;;3.84;100.00
13015;BME280;6573;57.696;11.950;2023-02-22T01:09:34;101657.63;;;4.34;100.00
13015;BME280;6573;57.696;11.950;2023-02-22T01:12:05;101652.06;;;4.25;100.00
13015;BME280;6573;57.696;11.950;2023-02-22T01:14:35;101639.78;;;4.21;100.00
13015;BME280;6573;57.696;11.950;2023-02-22T01:17:06;101673.56;;;4.43;100.00
13015;BME280;6573;57.696;11.950;2023-02-22T01:19:34;101681.00;;;4.56;100.00
13015;BME280;6573;57.696;11.950;2023-02-22T01:22:10;101668.47;;;4.46;100.00
13015;BME280;6573;57.696;11.950;2023-02-22T01:24:42;101689.50;;;4.52;100.00
13015;BME280;6573;57.696;11.950;2023-02-22T01:27:10;101669.59;;;4.29;100.00
13015;BME280;6573;57.696;11.950;2023-02-22T01:29:40;101679.00;;;4.49;100.00
13015;BME280;6573;57.696;11.950;2023-02-22T01:32:09;101612.53;;;4.11;100.00
13015;BME280;6573;57.696;11.950;2023-02-22T01:34:37;101630.69;;;4.10;100.00
13015;BME280;6573;57.696;11.950;2023-02-22T01:37:07;101656.84;;;4.13;100.00
13015;BME280;6573;57.696;11.950;2023-02-22T01:39:35;101687.31;;;4.39;100.00
13015;BME280;6573;57.696;11.950;2023-02-22T01:42:05;101572.88;;;3.71;100.00
13015;BME280;6573;57.696;11.950;2023-02-22T01:44:36;101690.97;;;4.44;100.00
13015;BME280;6573;57.696;11.950;2023-02-22T01:47:08;101679.03;;;4.27;100.00
13015;BME280;6573;57.696;11.950;2023-02-22T01:49:39;101693.97;;;4.31;100.00
13015;BME280;6573;57.696;11.950;2023-02-22T01:52:13;101692.19;;;4.30;100.00
13015;BME280;6573;57.696;11.950;2023-02-22T01:54:45;101666.78;;;4.24;100.00
13015;BME280;6573;57.696;11.950;2023-02-22T01:57:18;101655.41;;;4.21;100.00
13015;BME280;6573;57.696;11.950;2023-02-22T01:59:52;101627.88;;;4.04;100.00
13015;BME280;6573;57.696;11.950;2023-02-22T02:02:24;101646.75;;;4.22;100.00
13015;BME280;6573;57.696;11.950;2023-02-22T02:04:53;101682.31;;;4.45;100.00
13015;BME280;6573;57.696;11.950;2023-02-22T02:07:23;101659.97;;;4.26;100.00
13015;BME280;6573;57.696;11.950;2023-02-22T02:09:58;101667.59;;;4.45;100.00
13015;BME280;6573;57.696;11.950;2023-02-22T02:12:29;101620.50;;;4.16;100.00
13015;BME280;6573;57.696;11.950;2023-02-22T02:15:17;101697.41;;;4.53;100.00
13015;BME280;6573;57.696;11.950;2023-02-22T02:17:49;101696.41;;;4.50;100.00
13015;BME280;6573;57.696;11.950;2023-02-22T02:20:21;101678.47;;;4.34;100.00
13015;BME280;6573;57.696;11.950;2023-02-22T02:22:56;101703.94;;;4.19;100.00
13015;BME280;6573;57.696;11.950;2023-02-22T02:25:57;101653.56;;;3.94;100.00
13015;BME280;6573;57.696;11.950;2023-02-22T02:28:54;101705.69;;;4.20;100.00
13015;BME280;6573;57.696;11.950;2023-02-22T02:32:06;101698.75;;;4.19;100.00
13015;BME280;6573;57.696;11.950;2023-02-22T02:34:48;101707.69;;;4.27;100.00
13015;BME280;6573;57.696;11.950;2023-02-22T02:37:21;101702.97;;;4.39;100.00
13015;BME280;6573;57.696;11.950;2023-02-22T02:39:59;101701.06;;;4.35;100.00
13015;BME280;6573;57.696;11.950;2023-02-22T02:42:41;101702.41;;;4.24;100.00
13015;BME280;6573;57.696;11.950;2023-02-22T02:45:15;101697.28;;;4.27;100.00
13015;BME280;6573;57.696;11.950;2023-02-22T02:47:49;101698.94;;;4.25;100.00
13015;BME280;6573;57.696;11.950;2023-02-22T02:50:23;101644.47;;;3.83;100.00
13015;BME280;6573;57.696;11.950;2023-02-22T02:52:56;101652.84;;;3.99;100.00
13015;BME280;6573;57.696;11.950;2023-02-22T02:55:27;101590.34;;;3.75;100.00
13015;BME280;6573;57.696;11.950;2023-02-22T02:57:56;101672.00;;;4.01;100.00
13015;BME280;6573;57.696;11.950;2023-02-22T03:00:28;101682.31;;;3.98;100.00
13015;BME280;6573;57.696;11.950;2023-02-22T03:06:13;101583.25;;;3.47;100.00
13015;BME280;6573;57.696;11.950;2023-02-22T03:08:50;101685.84;;;4.00;100.00
13015;BME280;6573;57.696;11.950;2023-02-22T03:11:24;101674.97;;;3.87;100.00
13015;BME280;6573;57.696;11.950;2023-02-22T03:14:02;101617.72;;;3.64;100.00
13015;BME280;6573;57.696;11.950;2023-02-22T03:16:40;101650.84;;;3.91;100.00
13015;BME280;6573;57.696;11.950;2023-02-22T03:19:19;101703.81;;;4.16;100.00
13015;BME280;6573;57.696;11.950;2023-02-22T03:21:54;101627.91;;;3.81;100.00
13015;BME280;6573;57.696;11.950;2023-02-22T03:24:27;101691.00;;;4.22;100.00
13015;BME280;6573;57.696;11.950;2023-02-22T03:27:00;101678.44;;;4.10;100.00
13015;BME280;6573;57.696;11.950;2023-02-22T03:29:38;101650.94;;;3.94;100.00
13015;BME280;6573;57.696;11.950;2023-02-22T03:32:16;101651.19;;;4.01;100.00
13015;BME280;6573;57.696;11.950;2023-02-22T03:34:54;101623.91;;;3.67;100.00
13015;BME280;6573;57.696;11.950;2023-02-22T03:37:28;101653.94;;;3.81;100.00
13015;BME280;6573;57.696;11.950;2023-02-22T03:39:59;101674.88;;;3.84;100.00
13015;BME280;6573;57.696;11.950;2023-02-22T03:42:29;101664.81;;;3.93;100.00
13015;BME280;6573;57.696;11.950;2023-02-22T03:45:00;101640.31;;;3.88;100.00
13015;BME280;6573;57.696;11.950;2023-02-22T03:47:36;101668.59;;;4.02;100.00
13015;BME280;6573;57.696;11.950;2023-02-22T03:50:10;101670.09;;;3.73;100.00
13015;BME280;6573;57.696;11.950;2023-02-22T03:52:41;101541.44;;;2.97;100.00
13015;BME280;6573;57.696;11.950;2023-02-22T03:55:13;101634.91;;;3.60;100.00
13015;BME280;6573;57.696;11.950;2023-02-22T03:57:45;101674.88;;;3.84;100.00
13015;BME280;6573;57.696;11.950;2023-02-22T04:00:19;101660.09;;;3.61;100.00
13015;BME280;6573;57.696;11.950;2023-02-22T04:02:49;101647.69;;;3.54;100.00
13015;BME280;6573;57.696;11.950;2023-02-22T04:05:20;101556.13;;;2.96;100.00
13015;BME280;6573;57.696;11.950;2023-02-22T04:07:51;101671.44;;;3.63;100.00
13015;BME280;6573;57.696;11.950;2023-02-22T04:10:21;101658.19;;;3.57;100.00
13015;BME280;6573;57.696;11.950;2023-02-22T04:12:52;101658.31;;;3.60;100.00
13015;BME280;6573;57.696;11.950;2023-02-22T04:15:22;101685.69;;;3.73;100.00
13015;BME280;6573;57.696;11.950;2023-02-22T04:17:51;101654.56;;;3.52;100.00
13015;BME280;6573;57.696;11.950;2023-02-22T04:20:21;101696.75;;;3.67;100.00
13015;BME280;6573;57.696;11.950;2023-02-22T04:22:52;101695.22;;;3.72;100.00
13015;BME280;6573;57.696;11.950;2023-02-22T04:25:21;101659.75;;;3.52;100.00
13015;BME280;6573;57.696;11.950;2023-02-22T04:27:50;101657.00;;;3.27;100.00
13015;BME280;6573;57.696;11.950;2023-02-22T04:30:20;101681.84;;;3.41;100.00
13015;BME280;6573;57.696;11.950;2023-02-22T04:32:56;101686.00;;;3.58;100.00
13015;BME280;6573;57.696;11.950;2023-02-22T04:35:26;101607.94;;;3.14;100.00
13015;BME280;6573;57.696;11.950;2023-02-22T04:37:54;101691.53;;;3.67;100.00
13015;BME280;6573;57.696;11.950;2023-02-22T04:40:23;101651.56;;;3.43;100.00
13015;BME280;6573;57.696;11.950;2023-02-22T04:42:52;101656.66;;;3.62;100.00
13015;BME280;6573;57.696;11.950;2023-02-22T04:45:20;101682.28;;;3.74;100.00
13015;BME280;6573;57.696;11.950;2023-02-22T04:47:49;101663.31;;;3.54;100.00
13015;BME280;6573;57.696;11.950;2023-02-22T04:50:17;101679.00;;;3.57;100.00
13015;BME280;6573;57.696;11.950;2023-02-22T04:52:47;101620.84;;;3.33;100.00
13015;BME280;6573;57.696;11.950;2023-02-22T04:55:16;101687.88;;;3.62;100.00
13015;BME280;6573;57.696;11.950;2023-02-22T04:57:44;101649.44;;;3.33;100.00
13015;BME280;6573;57.696;11.950;2023-02-22T05:00:16;101631.22;;;3.33;100.00
13015;BME280;6573;57.696;11.950;2023-02-22T05:02:44;101665.66;;;3.48;100.00
13015;BME280;6573;57.696;11.950;2023-02-22T05:05:14;101691.78;;;3.73;100.00
13015;BME280;6573;57.696;11.950;2023-02-22T05:07:43;101695.22;;;3.72;100.00
13015;BME280;6573;57.696;11.950;2023-02-22T05:10:13;101660.75;;;3.56;100.00
13015;BME280;6573;57.696;11.950;2023-02-22T05:12:50;101668.97;;;3.66;100.00
13015;BME280;6573;57.696;11.950;2023-02-22T05:15:21;101661.09;;;3.65;100.00
13015;BME280;6573;57.696;11.950;2023-02-22T05:17:52;101676.50;;;3.82;100.00
13015;BME280;6573;57.696;11.950;2023-02-22T05:20:23;101682.31;;;3.75;100.00
13015;BME280;6573;57.696;11.950;2023-02-22T05:22:54;101687.06;;;3.85;100.00
13015;BME280;6573;57.696;11.950;2023-02-22T05:25:25;101574.41;;;3.20;100.00
13015;BME280;6573;57.696;11.950;2023-02-22T05:27:56;101686.41;;;3.91;100.00
13015;BME280;6573;57.696;11.950;2023-02-22T05:30:28;101681.72;;;3.82;100.00
13015;BME280;6573;57.696;11.950;2023-02-22T05:32:57;101658.59;;;3.68;100.00
13015;BME280;6573;57.696;11.950;2023-02-22T05:35:27;101650.59;;;3.62;100.00
13015;BME280;6573;57.696;11.950;2023-02-22T05:37:56;101656.78;;;3.65;100.00
13015;BME280;6573;57.696;11.950;2023-02-22T05:40:30;101679.59;;;3.72;100.00
13015;BME280;6573;57.696;11.950;2023-02-22T05:42:59;101503.84;;;2.67;100.00
13015;BME280;6573;57.696;11.950;2023-02-22T05:45:28;101564.47;;;3.10;100.00
13015;BME280;6573;57.696;11.950;2023-02-22T05:47:58;101690.72;;;3.68;100.00
13015;BME280;6573;57.696;11.950;2023-02-22T05:50:26;101672.03;;;3.56;100.00
13015;BME280;6573;57.696;11.950;2023-02-22T05:52:55;101695.47;;;3.78;100.00
13015;BME280;6573;57.696;11.950;2023-02-22T05:55:24;101691.19;;;3.80;100.00
13015;BME280;6573;57.696;11.950;2023-02-22T05:57:54;101689.66;;;3.63;100.00
13015;BME280;6573;57.696;11.950;2023-02-22T06:00:25;101661.16;;;3.44;100.00
13015;BME280;6573;57.696;11.950;2023-02-22T06:02:55;101693.78;;;3.80;100.00
13015;BME280;6573;57.696;11.950;2023-02-22T06:05:24;101685.66;;;3.71;100.00
13015;BME280;6573;57.696;11.950;2023-02-22T06:07:53;101695.59;;;3.81;100.00
13015;BME280;6573;57.696;11.950;2023-02-22T06:10:21;101710.72;;;3.91;100.00
13015;BME280;6573;57.696;11.950;2023-02-22T06:12:55;101670.63;;;3.64;100.00
13015;BME280;6573;57.696;11.950;2023-02-22T06:15:26;101724.03;;;3.77;100.00
13015;BME280;6573;57.696;11.950;2023-02-22T06:18:00;101694.34;;;3.72;100.00
13015;BME280;6573;57.696;11.950;2023-02-22T06:20:38;101716.03;;;3.72;100.00
13015;BME280;6573;57.696;11.950;2023-02-22T06:23:07;101712.84;;;3.79;100.00
13015;BME280;6573;57.696;11.950;2023-02-22T06:25:35;101690.84;;;3.49;100.00
13015;BME280;6573;57.696;11.950;2023-02-22T06:28:05;101672.97;;;3.36;100.00
13015;BME280;6573;57.696;11.950;2023-02-22T06:30:34;101719.94;;;3.61;100.00
13015;BME280;6573;57.696;11.950;2023-02-22T06:33:02;101712.13;;;3.61;100.00
13015;BME280;6573;57.696;11.950;2023-02-22T06:35:31;101712.47;;;3.70;100.00
13015;BME280;6573;57.696;11.950;2023-02-22T06:38:00;101730.56;;;3.89;100.00
13015;BME280;6573;57.696;11.950;2023-02-22T06:40:29;101749.28;;;4.02;100.00
13015;BME280;6573;57.696;11.950;2023-02-22T06:42:58;101549.56;;;3.06;100.00
13015;BME280;6573;57.696;11.950;2023-02-22T06:45:31;101736.75;;;4.14;100.00
13015;BME280;6573;57.696;11.950;2023-02-22T06:47:59;101745.25;;;4.10;100.00
13015;BME280;6573;57.696;11.950;2023-02-22T06:50:31;101601.69;;;3.31;100.00
13015;BME280;6573;57.696;11.950;2023-02-22T06:53:02;101735.06;;;4.16;100.00
13015;BME280;6573;57.696;11.950;2023-02-22T06:55:31;101673.56;;;3.96;100.00
13015;BME280;6573;57.696;11.950;2023-02-22T06:58:01;101737.41;;;4.32;100.00
13015;BME280;6573;57.696;11.950;2023-02-22T07:00:32;101719.66;;;4.22;100.00
13015;BME280;6573;57.696;11.950;2023-02-22T07:03:03;101733.41;;;4.18;100.00
13015;BME280;6573;57.696;11.950;2023-02-22T07:05:32;101722.88;;;4.15;100.00
13015;BME280;6573;57.696;11.950;2023-02-22T07:08:04;101738.44;;;4.37;100.00
13015;BME280;6573;57.696;11.950;2023-02-22T07:10:35;101737.50;;;4.35;100.00
13015;BME280;6573;57.696;11.950;2023-02-22T07:13:04;101738.66;;;4.41;100.00
13015;BME280;6573;57.696;11.950;2023-02-22T07:15:35;101738.19;;;4.53;100.00
13015;BME280;6573;57.696;11.950;2023-02-22T07:18:03;101653.56;;;3.94;100.00
13015;BME280;6573;57.696;11.950;2023-02-22T07:20:34;101737.88;;;4.44;100.00
13015;BME280;6573;57.696;11.950;2023-02-22T07:23:04;101687.28;;;3.91;100.00
13015;BME280;6573;57.696;11.950;2023-02-22T07:25:33;101569.56;;;3.07;100.00
13015;BME280;6573;57.696;11.950;2023-02-22T07:28:02;101750.56;;;4.13;100.00
13015;BME280;6573;57.696;11.950;2023-02-22T07:30:31;101750.91;;;4.22;100.00
13015;BME280;6573;57.696;11.950;2023-02-22T07:33:06;101747.81;;;4.32;100.00
13015;BME280;6573;57.696;11.950;2023-02-22T07:35:38;101752.03;;;4.52;100.00
13015;BME280;6573;57.696;11.950;2023-02-22T07:38:07;101748.81;;;4.59;100.00
13015;BME280;6573;57.696;11.950;2023-02-22T07:40:37;101575.75;;;3.78;100.00
13015;BME280;6573;57.696;11.950;2023-02-22T07:43:14;101570.44;;;3.52;100.00
13015;BME280;6573;57.696;11.950;2023-02-22T07:45:46;101582.72;;;3.56;100.00
13015;BME280;6573;57.696;11.950;2023-02-22T07:48:26;101747.19;;;4.61;100.00
13015;BME280;6573;57.696;11.950;2023-02-22T07:50:57;101733.66;;;4.47;100.00
13015;BME280;6573;57.696;11.950;2023-02-22T07:53:34;101736.53;;;4.55;100.00
13015;BME280;6573;57.696;11.950;2023-02-22T07:56:04;101722.75;;;4.59;100.00
13015;BME280;6573;57.696;11.950;2023-02-22T07:58:35;101746.19;;;4.81;100.00
13015;BME280;6573;57.696;11.950;2023-02-22T08:01:04;101745.72;;;4.69;100.00
13015;BME280;6573;57.696;11.950;2023-02-22T08:03:34;101740.72;;;4.75;100.00
13015;BME280;6573;57.696;11.950;2023-02-22T08:06:05;101741.03;;;4.84;100.00
13015;BME280;6573;57.696;11.950;2023-02-22T08:08:33;101753.47;;;4.91;100.00
13015;BME280;6573;57.696;11.950;2023-02-22T08:11:02;101673.69;;;4.46;100.00
13015;BME280;6573;57.696;11.950;2023-02-22T08:13:31;101739.81;;;4.73;100.00
13015;BME280;6573;57.696;11.950;2023-02-22T08:15:59;101757.94;;;4.70;100.00
13015;BME280;6573;57.696;11.950;2023-02-22T08:18:28;101758.31;;;4.81;100.00
13015;BME280;6573;57.696;11.950;2023-02-22T08:20:57;101698.19;;;4.51;100.00
13015;BME280;6573;57.696;11.950;2023-02-22T08:23:35;101670.03;;;4.41;100.00
13015;BME280;6573;57.696;11.950;2023-02-22T08:26:28;101760.88;;;5.04;100.00
13015;BME280;6573;57.696;11.950;2023-02-22T08:29:24;101765.56;;;5.14;100.00
13015;BME280;6573;57.696;11.950;2023-02-22T08:31:59;101752.66;;;5.17;100.00
13015;BME280;6573;57.696;11.950;2023-02-22T08:34:27;101753.44;;;5.15;100.00
13015;BME280;6573;57.696;11.950;2023-02-22T08:36:56;101725.81;;;4.96;100.00
13015;BME280;6573;57.696;11.950;2023-02-22T08:39:24;101755.50;;;5.25;100.00
13015;BME280;6573;57.696;11.950;2023-02-22T08:41:54;101750.47;;;5.31;100.00
13015;BME280;6573;57.696;11.950;2023-02-22T08:44:24;101755.91;;;5.37;100.00
13015;BME280;6573;57.696;11.950;2023-02-22T08:46:53;101750.13;;;5.46;100.00
13015;BME280;6573;57.696;11.950;2023-02-22T08:49:22;101752.09;;;5.53;100.00
13015;BME280;6573;57.696;11.950;2023-02-22T08:51:50;101752.28;;;5.59;100.00
13015;BME280;6573;57.696;11.950;2023-02-22T08:54:18;101751.59;;;5.64;100.00
13015;BME280;6573;57.696;11.950;2023-02-22T08:56:48;101749.38;;;5.50;100.00
13015;BME280;6573;57.696;11.950;2023-02-22T08:59:16;101750.31;;;5.52;100.00
13015;BME280;6573;57.696;11.950;2023-02-22T09:01:46;101729.31;;;5.49;100.00
13015;BME280;6573;57.696;11.950;2023-02-22T09:04:15;101746.22;;;5.60;100.00
13015;BME280;6573;57.696;11.950;2023-02-22T09:06:45;101759.16;;;5.57;100.00
13015;BME280;6573;57.696;11.950;2023-02-22T09:09:18;101757.63;;;5.63;100.00
13015;BME280;6573;57.696;11.950;2023-02-22T09:11:47;101736.63;;;5.59;100.00
13015;BME280;6573;57.696;11.950;2023-02-22T09:14:18;101753.31;;;5.64;100.00
13015;BME280;6573;57.696;11.950;2023-02-22T09:16:49;101739.69;;;5.72;100.00
13015;BME280;6573;57.696;11.950;2023-02-22T09:19:17;101747.38;;;5.95;100.00
13015;BME280;6573;57.696;11.950;2023-02-22T09:21:51;101728.09;;;5.91;100.00
13015;BME280;6573;57.696;11.950;2023-02-22T09:24:20;101735.53;;;5.79;100.00
13015;BME280;6573;57.696;11.950;2023-02-22T09:26:49;101743.63;;;5.86;100.00
13015;BME280;6573;57.696;11.950;2023-02-22T09:29:21;101696.91;;;5.69;100.00
13015;BME280;6573;57.696;11.950;2023-02-22T09:31:52;101743.31;;;6.04;100.00
13015;BME280;6573;57.696;11.950;2023-02-22T09:34:23;101741.53;;;6.03;100.00
13015;BME280;6573;57.696;11.950;2023-02-22T09:36:57;101746.31;;;6.18;100.00
13015;BME280;6573;57.696;11.950;2023-02-22T09:39:25;101737.09;;;6.30;100.00
13015;BME280;6573;57.696;11.950;2023-02-22T09:42:01;101736.47;;;6.37;100.00
13015;BME280;6573;57.696;11.950;2023-02-22T09:44:35;101740.75;;;6.35;100.00
13015;BME280;6573;57.696;11.950;2023-02-22T09:47:12;101742.63;;;6.39;100.00
13015;BME280;6573;57.696;11.950;2023-02-22T09:49:43;101740.69;;;6.32;100.00
13015;BME280;6573;57.696;11.950;2023-02-22T09:52:22;101702.13;;;6.25;100.00
13015;BME280;6573;57.696;11.950;2023-02-22T09:54:58;101746.06;;;6.38;100.00
13015;BME280;6573;57.696;11.950;2023-02-22T09:57:33;101730.94;;;6.27;100.00
13015;BME280;6573;57.696;11.950;2023-02-22T10:00:06;101737.50;;;6.42;100.00
13015;BME280;6573;57.696;11.950;2023-02-22T10:02:46;101747.16;;;6.45;100.00
13015;BME280;6573;57.696;11.950;2023-02-22T10:05:20;101731.06;;;6.31;100.00
13015;BME280;6573;57.696;11.950;2023-02-22T10:07:59;101751.72;;;6.53;100.00
13015;BME280;6573;57.696;11.950;2023-02-22T10:10:36;101749.22;;;6.57;100.00
13015;BME280;6573;57.696;11.950;2023-02-22T10:13:15;101742.31;;;6.60;100.00
13015;BME280;6573;57.696;11.950;2023-02-22T10:15:54;101745.16;;;6.68;100.00
13015;BME280;6573;57.696;11.950;2023-02-22T10:18:41;101729.66;;;6.42;100.00
13015;BME280;6573;57.696;11.950;2023-02-22T10:21:23;101739.34;;;6.46;100.00
13015;BME280;6573;57.696;11.950;2023-02-22T10:24:04;101714.94;;;6.47;100.00
13015;BME280;6573;57.696;11.950;2023-02-22T10:26:36;101734.53;;;6.62;100.00
13015;BME280;6573;57.696;11.950;2023-02-22T10:29:15;101735.66;;;6.70;100.00
13015;BME280;6573;57.696;11.950;2023-02-22T10:31:46;101727.53;;;6.61;100.00
13015;BME280;6573;57.696;11.950;2023-02-22T10:34:22;101727.38;;;6.55;100.00
13015;BME280;6573;57.696;11.950;2023-02-22T10:36:57;101732.94;;;6.67;100.00
13015;BME280;6573;57.696;11.950;2023-02-22T10:39:28;101731.66;;;6.84;100.00
13015;BME280;6573;57.696;11.950;2023-02-22T10:42:02;101734.88;;;6.74;100.00
13015;BME280;6573;57.696;11.950;2023-02-22T10:44:32;101730.53;;;6.74;100.00
13015;BME280;6573;57.696;11.950;2023-02-22T10:47:03;101722.63;;;6.73;100.00
13015;BME280;6573;57.696;11.950;2023-02-22T10:49:36;101734.59;;;6.96;100.00
13015;BME280;6573;57.696;11.950;2023-02-22T10:52:13;101726.56;;;6.90;100.00
13015;BME280;6573;57.696;11.950;2023-02-22T10:54:45;101711.22;;;7.02;100.00
13015;BME280;6573;57.696;11.950;2023-02-22T10:57:19;101716.78;;;7.14;100.00
13015;BME280;6573;57.696;11.950;2023-02-22T10:59:48;101723.84;;;7.18;100.00
13015;BME280;6573;57.696;11.950;2023-02-22T11:02:20;101701.13;;;7.17;100.00
13015;BME280;6573;57.696;11.950;2023-02-22T11:04:52;101711.84;;;7.26;100.00
13015;BME280;6573;57.696;11.950;2023-02-22T11:07:24;101709.84;;;7.16;100.00
13015;BME280;6573;57.696;11.950;2023-02-22T11:09:55;101708.44;;;7.30;100.00
13015;BME280;6573;57.696;11.950;2023-02-22T11:12:31;101712.22;;;7.41;100.00
13015;BME280;6573;57.696;11.950;2023-02-22T11:15:26;101695.84;;;7.50;100.00
13015;BME280;6573;57.696;11.950;2023-02-22T11:17:57;101704.16;;;7.69;100.00
13015;BME280;6573;57.696;11.950;2023-02-22T11:20:32;101709.09;;;7.57;100.00
13015;BME280;6573;57.696;11.950;2023-02-22T11:23:04;101688.97;;;7.55;100.00
13015;BME280;6573;57.696;11.950;2023-02-22T11:25:36;101703.94;;;7.60;100.00
13015;BME280;6573;57.696;11.950;2023-02-22T11:28:07;101707.41;;;7.59;100.00
13015;BME280;6573;57.696;11.950;2023-02-22T11:30:37;101705.84;;;7.67;100.00
13015;BME280;6573;57.696;11.950;2023-02-22T11:33:16;101709.53;;;7.75;100.00
13015;BME280;6573;57.696;11.950;2023-02-22T11:35:53;101708.38;;;7.63;100.00
13015;BME280;6573;57.696;11.950;2023-02-22T11:38:23;101700.81;;;7.76;100.00
13015;BME280;6573;57.696;11.950;2023-02-22T11:41:13;101701.34;;;7.62;100.00
13015;BME280;6573;57.696;11.950;2023-02-22T11:43:44;101698.88;;;7.66;100.00
13015;BME280;6573;57.696;11.950;2023-02-22T11:46:17;101701.53;;;7.69;100.00
13015;BME280;6573;57.696;11.950;2023-02-22T11:48:56;101691.44;;;7.86;100.00
13015;BME280;6573;57.696;11.950;2023-02-22T11:51:37;101694.00;;;7.84;100.00
13015;BME280;6573;57.696;11.950;2023-02-22T11:54:20;101697.50;;;7.83;100.00
13015;BME280;6573;57.696;11.950;2023-02-22T11:57:03;101696.00;;;7.95;100.00
13015;BME280;6573;57.696;11.950;2023-02-22T11:59:43;101691.31;;;7.80;100.00
13015;BME280;6573;57.696;11.950;2023-02-22T12:02:44;101695.31;;;8.03;100.00
13015;BME280;6573;57.696;11.950;2023-02-22T12:05:30;101684.06;;;8.09;100.00
13015;BME280;6573;57.696;11.950;2023-02-22T12:08:15;101694.53;;;8.09;100.00
13015;BME280;6573;57.696;11.950;2023-02-22T12:11:02;101683.25;;;8.11;100.00
13015;BME280;6573;57.696;11.950;2023-02-22T12:13:49;101648.91;;;7.98;100.00
13015;BME280;6573;57.696;11.950;2023-02-22T12:16:27;101685.19;;;8.21;100.00
13015;BME280;6573;57.696;11.950;2023-02-22T12:19:12;101677.53;;;8.29;100.00
13015;BME280;6573;57.696;11.950;2023-02-22T12:21:45;101658.72;;;8.06;100.00
13015;BME280;6573;57.696;11.950;2023-02-22T12:24:21;101680.84;;;8.22;100.00
13015;BME280;6573;57.696;11.950;2023-02-22T12:26:55;101680.13;;;8.27;100.00
13015;BME280;6573;57.696;11.950;2023-02-22T12:29:29;101671.44;;;8.30;100.00
13015;BME280;6573;57.696;11.950;2023-02-22T12:32:06;101680.66;;;8.13;100.00
13015;BME280;6573;57.696;11.950;2023-02-22T12:34:41;101654.53;;;8.16;100.00
13015;BME280;6573;57.696;11.950;2023-02-22T12:37:15;101662.09;;;8.44;100.00
13015;BME280;6573;57.696;11.950;2023-02-22T12:39:54;101657.09;;;8.56;100.00
13015;BME280;6573;57.696;11.950;2023-02-22T12:42:37;101654.59;;;8.64;100.00
13015;BME280;6573;57.696;11.950;2023-02-22T12:45:19;101672.53;;;8.41;100.00
13015;BME280;6573;57.696;11.950;2023-02-22T12:47:54;101660.13;;;8.31;100.00
13015;BME280;6573;57.696;11.950;2023-02-22T12:50:28;101661.78;;;8.29;100.00
13015;BME280;6573;57.696;11.950;2023-02-22T12:53:10;101639.66;;;8.15;100.00
13015;BME280;6573;57.696;11.950;2023-02-22T12:55:46;101655.03;;;8.40;100.00
13015;BME280;6573;57.696;11.950;2023-02-22T12:58:21;101638.50;;;8.44;100.00
13015;BME280;6573;57.696;11.950;2023-02-22T13:00:58;101651.63;;;8.44;100.00
13015;BME280;6573;57.696;11.950;2023-02-22T13:03:34;101643.13;;;8.57;100.00
13015;BME280;6573;57.696;11.950;2023-02-22T13:06:23;101665.69;;;8.49;100.00
13015;BME280;6573;57.696;11.950;2023-02-22T13:09:06;101659.78;;;8.59;100.00
13015;BME280;6573;57.696;11.950;2023-02-22T13:11:41;101654.38;;;8.52;100.00
13015;BME280;6573;57.696;11.950;2023-02-22T13:14:19;101638.69;;;8.53;100.00
13015;BME280;6573;57.696;11.950;2023-02-22T13:16:56;101659.03;;;8.66;100.00
13015;BME280;6573;57.696;11.950;2023-02-22T13:19:35;101657.06;;;8.53;100.00
13015;BME280;6573;57.696;11.950;2023-02-22T13:22:12;101655.56;;;8.67;100.00
13015;BME280;6573;57.696;11.950;2023-02-22T13:24:52;101643.41;;;8.72;100.00